DAAV

Jijel Ferhat Abbas Airport

Jijel, Algeria
METAR DAAV 160000Z 21003KT 9999 FEW020 SCT200 09/07 Q1024
Observed Flight Rules
Dec-16 @ 00:00 UTC (an hour ago) Visual Flight Rules
Wind Visibility Clouds
210° at 3 knots 10,000+ meters
  • Few at 2,000' AGL
  • Scattered at 20,000' AGL
Temperatures Readings
Current 9°C / 48°F
Dewpoint 7°C / 45°F
Humidity 87%
Altimeter 30.24" Hg
Pressure 1024 hPa
Elevation 11
METAR DAAV 160000Z 21003KT 9999 FEW020 SCT200 09/07 Q1024
Observed Flight Rules
Dec-16 @ 00:00 UTC
(an hour ago)
VFR
Wind Visibility
210° at 3 knots 10,000+ meters
Clouds
  • Few at 2,000' AGL
  • Scattered at 20,000' AGL
Temperature Dewpoint
9°C / 48°F 7°C / 45°F
Humidity Altimeter Pressure
87% 30.24" Hg 1024 hPa